Temp: 5.9°C   Baro: 1005.5mb
  Wind: 0.0mph   Dir: WNW (300°)
  Rain: 0.0mm (0.0mm/hr)
  Solar: 0W/m2  Hum: 94%
 
Bath Spa Weather Historical Data
Daily Summary for October 11, 2019 Units:  Metric    English   Both
Next Day »
Daily Weekly Monthly Yearly Custom
  High: Low: Average:
Temperature: 15.7 °C 10.5 °C 13.6 °C
Dew Point: 14.0 °C 9.4 °C 12.2 °C
Humidity: 94% 88% 92%
Wind Speed: 32.2km/h 0.0km/h 8.8km/h
Wind Gust: 38.6km/h - -
Wind direction- - WSW
Pressure: 1008.7 hPa 1002.3 hPa -
Precipitation: 16.5 mm    
Historical Graphs
 
 
Tabular Data for October 11, 2019
Time Temperature Dew Point Pressure Wind direction Wind Speed Wind Gust Humidity Rainfall Rate (Hourly) solar
00:00 14.3 °C 12.7 °C 1008.4 hPa SW 11.1 km/h 11.3 km/h 90% 0.8 mm 0.00 W/m2
00:05 14.3 °C 12.9 °C 1008.4 hPa SW 11.1 km/h 16.1 km/h 91% 0.5 mm 0.00 W/m2
00:10 14.3 °C 12.9 °C 1008.4 hPa SW 6.4 km/h 12.9 km/h 91% 0.5 mm 0.00 W/m2
00:15 14.4 °C 12.8 °C 1008.4 hPa SW 9.7 km/h 17.7 km/h 90% 0.5 mm 0.00 W/m2
00:20 14.5 °C 12.9 °C 1008.4 hPa SW 14.3 km/h 19.3 km/h 90% 0.5 mm 0.00 W/m2
00:25 14.5 °C 12.9 °C 1008.4 hPa SW 13.0 km/h 19.3 km/h 90% 0.5 mm 0.00 W/m2
00:30 14.7 °C 12.9 °C 1008.4 hPa WSW 4.7 km/h 14.5 km/h 89% 0.5 mm 0.00 W/m2
00:35 14.6 °C 12.8 °C 1008.7 hPa West 4.7 km/h 12.9 km/h 89% 0.8 mm 0.00 W/m2
00:40 14.4 °C 12.6 °C 1008.4 hPa WSW 3.2 km/h 14.5 km/h 89% 1.0 mm 0.00 W/m2
00:45 14.3 °C 12.7 °C 1008.4 hPa SW 4.7 km/h 16.1 km/h 90% 1.3 mm 0.00 W/m2
00:50 14.3 °C 12.7 °C 1008.4 hPa WSW 7.9 km/h 19.3 km/h 90% 1.3 mm 0.00 W/m2
00:55 14.3 °C 12.9 °C 1008.4 hPa WSW 1.4 km/h 9.7 km/h 91% 1.3 mm 0.00 W/m2
01:00 14.3 °C 12.9 °C 1008.4 hPa SW 6.4 km/h 11.3 km/h 91% 1.0 mm 0.00 W/m2
01:05 14.3 °C 12.9 °C 1008.4 hPa South 19.3 km/h 19.3 km/h 91% 1.0 mm 0.00 W/m2
01:10 14.2 °C 12.8 °C 1008.4 hPa SSW 1.4 km/h 11.3 km/h 91% 1.3 mm 0.00 W/m2
01:15 14.2 °C 12.8 °C 1008.4 hPa WSW 14.3 km/h 19.3 km/h 91% 1.3 mm 0.00 W/m2
01:20 14.3 °C 12.9 °C 1008.4 hPa SW 13.0 km/h 24.1 km/h 91% 1.5 mm 0.00 W/m2
01:25 14.2 °C 12.8 °C 1008.4 hPa WSW 7.9 km/h 16.1 km/h 91% 1.5 mm 0.00 W/m2
01:30 14.2 °C 12.8 °C 1008.4 hPa SW 13.0 km/h 24.1 km/h 91% 1.5 mm 0.00 W/m2
01:35 14.2 °C 12.8 °C 1008.4 hPa SSW 7.9 km/h 16.1 km/h 91% 1.5 mm 0.00 W/m2
01:40 14.2 °C 12.8 °C 1008.4 hPa SW 13.0 km/h 17.7 km/h 91% 1.5 mm 0.00 W/m2
01:45 14.2 °C 12.8 °C 1008.4 hPa SW 14.3 km/h 17.7 km/h 91% 1.5 mm 0.00 W/m2
01:50 14.2 °C 12.8 °C 1008.4 hPa SW 11.1 km/h 12.9 km/h 91% 1.5 mm 0.00 W/m2
01:55 14.2 °C 12.8 °C 1008.4 hPa WSW 6.4 km/h 19.3 km/h 91% 1.5 mm 0.00 W/m2
02:00 14.2 °C 12.8 °C 1008.4 hPa SW 7.9 km/h 24.1 km/h 91% 1.8 mm 0.00 W/m2
02:05 14.2 °C 12.8 °C 1008.4 hPa SW 17.7 km/h 22.5 km/h 91% 1.5 mm 0.00 W/m2
02:10 14.1 °C 12.7 °C 1008.0 hPa WSW 4.7 km/h 11.3 km/h 91% 1.8 mm 0.00 W/m2
02:15 14.1 °C 12.8 °C 1008.0 hPa West 13.0 km/h 16.1 km/h 92% 1.5 mm 0.00 W/m2
02:20 14.1 °C 12.7 °C 1008.0 hPa WSW 11.1 km/h 22.5 km/h 91% 1.8 mm 0.00 W/m2
02:25 14.1 °C 12.8 °C 1008.0 hPa SW 27.4 km/h 27.4 km/h 92% 1.5 mm 0.00 W/m2
02:30 14.1 °C 12.8 °C 1008.0 hPa SW 11.1 km/h 16.1 km/h 92% 1.5 mm 0.00 W/m2
02:35 14.0 °C 12.7 °C 1008.0 hPa WSW 6.4 km/h 14.5 km/h 92% 1.5 mm 0.00 W/m2
02:40 14.0 °C 12.7 °C 1008.0 hPa SW 19.5 km/h 25.7 km/h 92% 1.3 mm 0.00 W/m2
02:45 14.0 °C 12.7 °C 1008.0 hPa WSW 11.1 km/h 20.9 km/h 92% 1.3 mm 0.00 W/m2
02:50 14.0 °C 12.7 °C 1008.0 hPa WSW 14.3 km/h 22.5 km/h 92% 1.3 mm 0.00 W/m2
02:55 14.0 °C 12.7 °C 1007.7 hPa SW 11.1 km/h 17.7 km/h 92% 1.8 mm 0.00 W/m2
03:00 13.9 °C 12.6 °C 1007.7 hPa SW 4.7 km/h 20.9 km/h 92% 1.8 mm 0.00 W/m2
03:05 13.9 °C 12.6 °C 1007.7 hPa SW 11.1 km/h 19.3 km/h 92% 1.8 mm 0.00 W/m2
03:10 13.9 °C 12.6 °C 1007.3 hPa SSW 1.4 km/h 14.5 km/h 92% 1.8 mm 0.00 W/m2
03:15 13.8 °C 12.5 °C 1007.3 hPa SSW 9.7 km/h 24.1 km/h 92% 1.8 mm 0.00 W/m2
03:20 13.9 °C 12.6 °C 1007.3 hPa SW 9.7 km/h 11.3 km/h 92% 1.8 mm 0.00 W/m2
03:25 13.9 °C 12.6 °C 1007.3 hPa SW 7.9 km/h 14.5 km/h 92% 1.8 mm 0.00 W/m2
03:30 13.8 °C 12.5 °C 1007.3 hPa SW 7.9 km/h 19.3 km/h 92% 2.3 mm 0.00 W/m2
03:35 13.8 °C 12.7 °C 1007.0 hPa South 7.9 km/h 17.7 km/h 93% 2.5 mm 0.00 W/m2
03:40 13.8 °C 12.7 °C 1007.0 hPa WSW 9.7 km/h 11.3 km/h 93% 3.0 mm 0.00 W/m2
03:45 13.8 °C 12.7 °C 1006.7 hPa SSW 9.7 km/h 14.5 km/h 93% 3.0 mm 0.00 W/m2
03:50 13.8 °C 12.7 °C 1007.0 hPa SW 17.7 km/h 27.4 km/h 93% 3.0 mm 0.00 W/m2
03:55 13.8 °C 12.7 °C 1007.3 hPa West 6.4 km/h 17.7 km/h 93% 2.3 mm 0.00 W/m2
04:00 13.8 °C 12.7 °C 1007.0 hPa WSW 11.1 km/h 24.1 km/h 93% 2.3 mm 0.00 W/m2
04:05 13.8 °C 12.7 °C 1007.0 hPa WSW 4.7 km/h 11.3 km/h 93% 3.0 mm 0.00 W/m2
04:10 13.8 °C 12.7 °C 1007.0 hPa WSW 7.9 km/h 19.3 km/h 93% 3.0 mm 0.00 W/m2
04:15 13.8 °C 12.7 °C 1006.7 hPa SW 6.4 km/h 14.5 km/h 93% 3.0 mm 0.00 W/m2
04:20 13.8 °C 12.7 °C 1006.7 hPa SW 9.7 km/h 22.5 km/h 93% 3.0 mm 0.00 W/m2
04:25 13.8 °C 12.7 °C 1006.7 hPa SW 14.3 km/h 14.5 km/h 93% 3.3 mm 0.00 W/m2
04:30 13.8 °C 12.7 °C 1006.7 hPa SW 17.7 km/h 20.9 km/h 93% 3.0 mm 0.00 W/m2
04:35 13.9 °C 12.8 °C 1006.3 hPa SW 6.4 km/h 20.9 km/h 93% 2.3 mm 0.00 W/m2
04:40 13.8 °C 12.7 °C 1006.3 hPa SW 4.7 km/h 9.7 km/h 93% 2.0 mm 0.00 W/m2
04:45 13.9 °C 12.8 °C 1006.3 hPa SW 9.7 km/h 19.3 km/h 93% 2.0 mm 0.00 W/m2
04:50 13.9 °C 12.8 °C 1006.3 hPa SW 9.7 km/h 22.5 km/h 93% 1.8 mm 0.00 W/m2
04:55 13.9 °C 12.8 °C 1006.3 hPa WSW 11.1 km/h 22.5 km/h 93% 2.0 mm 0.00 W/m2
05:00 14.0 °C 12.9 °C 1006.0 hPa SSW 4.7 km/h 17.7 km/h 93% 1.8 mm 0.00 W/m2
05:05 14.0 °C 12.9 °C 1006.0 hPa SW 11.1 km/h 17.7 km/h 93% 1.3 mm 0.00 W/m2
05:10 14.0 °C 12.9 °C 1006.0 hPa SW 14.3 km/h 20.9 km/h 93% 1.0 mm 0.00 W/m2
05:15 14.0 °C 12.9 °C 1005.6 hPa SW 13.0 km/h 17.7 km/h 93% 1.0 mm 0.00 W/m2
05:20 14.0 °C 12.7 °C 1005.6 hPa SW 9.7 km/h 17.7 km/h 92% 0.5 mm 0.00 W/m2
05:25 14.0 °C 12.7 °C 1005.6 hPa SSE 7.9 km/h 25.7 km/h 92% 0.5 mm 0.00 W/m2
05:30 14.0 °C 12.7 °C 1005.6 hPa WSW 14.3 km/h 19.3 km/h 92% 0.5 mm 0.00 W/m2
05:35 14.0 °C 12.7 °C 1005.6 hPa SW 11.1 km/h 22.5 km/h 92% 0.5 mm 0.00 W/m2
05:40 14.0 °C 12.7 °C 1005.6 hPa SW 1.4 km/h 20.9 km/h 92% 0.5 mm 0.00 W/m2
05:45 14.0 °C 12.7 °C 1005.6 hPa SW 1.4 km/h 17.7 km/h 92% 0.5 mm 0.00 W/m2
05:50 14.0 °C 12.7 °C 1005.6 hPa SW 9.7 km/h 22.5 km/h 92% 0.5 mm 0.00 W/m2
05:55 14.1 °C 12.8 °C 1005.6 hPa WSW 13.0 km/h 19.3 km/h 92% 0.5 mm 0.00 W/m2
06:00 14.1 °C 12.8 °C 1005.6 hPa WSW 7.9 km/h 22.5 km/h 92% 0.5 mm 0.00 W/m2
06:05 14.0 °C 12.7 °C 1005.6 hPa SW 20.9 km/h 24.1 km/h 92% 0.5 mm 0.00 W/m2
06:10 14.1 °C 12.8 °C 1005.6 hPa SW 7.9 km/h 24.1 km/h 92% 0.5 mm 0.00 W/m2
06:15 14.1 °C 12.8 °C 1005.3 hPa WSW 13.0 km/h 19.3 km/h 92% 0.5 mm 0.00 W/m2
06:20 14.1 °C 12.8 °C 1005.3 hPa SW 9.7 km/h 17.7 km/h 92% 0.8 mm 0.00 W/m2
06:25 14.1 °C 12.8 °C 1005.3 hPa SW 9.7 km/h 16.1 km/h 92% 0.8 mm 0.00 W/m2
06:30 14.2 °C 12.9 °C 1005.3 hPa WSW 14.3 km/h 24.1 km/h 92% 0.5 mm 0.00 W/m2
06:35 14.2 °C 12.9 °C 1005.3 hPa SW 9.7 km/h 29.0 km/h 92% 0.5 mm 0.00 W/m2
06:40 14.1 °C 12.8 °C 1005.3 hPa WSW 9.7 km/h 16.1 km/h 92% 0.5 mm 0.00 W/m2
06:45 14.1 °C 12.8 °C 1005.6 hPa West 27.4 km/h 27.4 km/h 92% 0.5 mm 0.00 W/m2
06:50 14.1 °C 12.8 °C 1005.6 hPa SW 6.4 km/h 20.9 km/h 92% 0.5 mm 0.00 W/m2
06:55 14.1 °C 12.8 °C 1005.3 hPa SSE 20.9 km/h 30.6 km/h 92% 0.5 mm 0.00 W/m2
07:00 14.1 °C 12.7 °C 1005.6 hPa SW 13.0 km/h 20.9 km/h 91% 0.3 mm 0.00 W/m2
07:05 14.0 °C 12.6 °C 1005.3 hPa WSW 7.9 km/h 24.1 km/h 91% 0.3 mm 0.00 W/m2
07:10 14.0 °C 12.6 °C 1005.3 hPa WSW 14.3 km/h 27.4 km/h 91% 0.3 mm 0.00 W/m2
07:15 14.1 °C 12.7 °C 1005.3 hPa WSW 22.7 km/h 25.7 km/h 91% 0.3 mm 0.00 W/m2
07:20 14.2 °C 12.6 °C 1005.3 hPa WSW 6.4 km/h 29.0 km/h 90% 0.0 mm 0.00 W/m2
07:25 14.1 °C 12.5 °C 1005.6 hPa WSW 13.0 km/h 24.1 km/h 90% 0.0 mm 0.00 W/m2
07:30 14.1 °C 12.5 °C 1005.3 hPa WSW 27.4 km/h 33.8 km/h 90% 0.0 mm 0.00 W/m2
07:35 14.0 °C 12.2 °C 1005.3 hPa WSW 4.7 km/h 25.7 km/h 89% 0.0 mm 0.00 W/m2
07:40 13.9 °C 12.1 °C 1005.3 hPa West 14.3 km/h 24.1 km/h 89% 0.0 mm 0.00 W/m2
07:45 13.9 °C 12.1 °C 1005.3 hPa West 7.9 km/h 16.1 km/h 89% 0.0 mm 0.00 W/m2
07:50 13.8 °C 11.8 °C 1005.0 hPa SW 14.3 km/h 22.5 km/h 88% 0.0 mm 5.00 W/m2
07:55 13.8 °C 11.8 °C 1005.3 hPa WSW 14.3 km/h 25.7 km/h 88% 0.0 mm 5.00 W/m2
08:00 13.8 °C 11.8 °C 1005.3 hPa SW 9.7 km/h 16.1 km/h 88% 0.0 mm 7.00 W/m2
08:05 13.7 °C 11.7 °C 1005.3 hPa WSW 13.0 km/h 16.1 km/h 88% 0.0 mm 9.00 W/m2
08:10 13.6 °C 11.6 °C 1005.3 hPa West 7.9 km/h 20.9 km/h 88% 0.0 mm 12.00 W/m2
08:15 13.5 °C 11.7 °C 1005.3 hPa WNW 6.4 km/h 16.1 km/h 89% 0.0 mm 14.00 W/m2
08:20 13.5 °C 11.7 °C 1005.3 hPa WSW 4.7 km/h 20.9 km/h 89% 0.0 mm 21.00 W/m2
08:25 13.5 °C 11.7 °C 1005.3 hPa WSW 4.7 km/h 17.7 km/h 89% 0.0 mm 21.00 W/m2
08:30 13.5 °C 11.7 °C 1005.6 hPa SW 11.1 km/h 14.5 km/h 89% 0.0 mm 30.00 W/m2
08:35 13.6 °C 11.8 °C 1005.3 hPa SW 6.4 km/h 24.1 km/h 89% 0.0 mm 32.00 W/m2
08:40 13.6 °C 11.8 °C 1005.3 hPa West 14.3 km/h 16.1 km/h 89% 0.0 mm 30.00 W/m2
08:45 13.6 °C 11.6 °C 1005.3 hPa WSW 3.2 km/h 11.3 km/h 88% 0.0 mm 32.00 W/m2
08:50 13.6 °C 11.6 °C 1005.3 hPa WNW 6.4 km/h 8.0 km/h 88% 0.0 mm 47.00 W/m2
08:55 13.6 °C 11.6 °C 1005.3 hPa WSW 3.2 km/h 24.1 km/h 88% 0.0 mm 56.00 W/m2
09:00 13.7 °C 11.7 °C 1005.3 hPa West 4.7 km/h 9.7 km/h 88% 0.0 mm 47.00 W/m2
09:05 13.6 °C 11.6 °C 1005.0 hPa WSW 4.7 km/h 12.9 km/h 88% 0.0 mm 51.00 W/m2
09:10 13.7 °C 11.9 °C 1005.0 hPa WSW 16.1 km/h 16.1 km/h 89% 0.0 mm 39.00 W/m2
09:15 13.7 °C 11.9 °C 1005.0 hPa South 3.2 km/h 12.9 km/h 89% 0.0 mm 60.00 W/m2
09:20 13.7 °C 11.9 °C 1005.0 hPa SW 1.4 km/h 11.3 km/h 89% 0.0 mm 53.00 W/m2
09:25 13.8 °C 12.0 °C 1005.0 hPa West 4.7 km/h 14.5 km/h 89% 0.0 mm 39.00 W/m2
09:30 13.7 °C 11.9 °C 1005.0 hPa SW 9.7 km/h 12.9 km/h 89% 0.0 mm 47.00 W/m2
09:35 13.8 °C 12.0 °C 1005.0 hPa WSW 9.7 km/h 9.7 km/h 89% 0.0 mm 44.00 W/m2
09:40 13.9 °C 12.1 °C 1005.0 hPa SW 9.7 km/h 19.3 km/h 89% 0.0 mm 39.00 W/m2
09:45 13.9 °C 12.1 °C 1005.0 hPa SSW 11.1 km/h 16.1 km/h 89% 0.0 mm 46.00 W/m2
09:50 14.0 °C 12.2 °C 1005.0 hPa SW 20.9 km/h 22.5 km/h 89% 0.0 mm 56.00 W/m2
09:55 14.2 °C 12.2 °C 1005.0 hPa SW 11.1 km/h 20.9 km/h 88% 0.0 mm 58.00 W/m2
10:00 14.2 °C 12.2 °C 1005.0 hPa SSW 13.0 km/h 17.7 km/h 88% 0.0 mm 63.00 W/m2
10:05 14.2 °C 12.2 °C 1005.0 hPa WSW 24.1 km/h 32.2 km/h 88% 0.0 mm 88.00 W/m2
10:10 14.3 °C 12.3 °C 1005.0 hPa SSW 19.5 km/h 29.0 km/h 88% 0.0 mm 102.00 W/m2
10:15 14.3 °C 12.3 °C 1005.0 hPa SW 25.9 km/h 27.4 km/h 88% 0.0 mm 104.00 W/m2
10:20 14.4 °C 12.4 °C 1005.0 hPa SW 9.7 km/h 24.1 km/h 88% 0.0 mm 128.00 W/m2
10:25 14.4 °C 12.4 °C 1005.0 hPa SW 9.7 km/h 24.1 km/h 88% 0.3 mm 134.00 W/m2
10:30 14.4 °C 12.4 °C 1005.0 hPa WSW 20.9 km/h 30.6 km/h 88% 0.3 mm 134.00 W/m2
10:35 14.4 °C 12.4 °C 1005.0 hPa West 17.7 km/h 20.9 km/h 88% 0.3 mm 174.00 W/m2
10:40 14.5 °C 12.7 °C 1005.0 hPa SW 7.9 km/h 29.0 km/h 89% 0.3 mm 120.00 W/m2
10:45 14.5 °C 12.7 °C 1005.0 hPa SW 14.3 km/h 24.1 km/h 89% 0.3 mm 65.00 W/m2
10:50 14.4 °C 12.6 °C 1005.0 hPa West 4.7 km/h 19.3 km/h 89% 0.3 mm 32.00 W/m2
10:55 14.4 °C 12.6 °C 1005.0 hPa West 9.7 km/h 19.3 km/h 89% 0.3 mm 47.00 W/m2
11:00 14.3 °C 12.5 °C 1005.0 hPa SW 3.2 km/h 16.1 km/h 89% 0.3 mm 84.00 W/m2
11:05 14.3 °C 12.7 °C 1004.6 hPa SSW 7.9 km/h 14.5 km/h 90% 0.3 mm 93.00 W/m2
11:10 14.3 °C 12.7 °C 1004.6 hPa SW 3.2 km/h 12.9 km/h 90% 0.3 mm 125.00 W/m2
11:15 14.3 °C 12.7 °C 1004.6 hPa WSW 4.7 km/h 12.9 km/h 90% 0.3 mm 151.00 W/m2
11:20 14.4 °C 12.9 °C 1004.6 hPa SW 3.2 km/h 17.7 km/h 91% 0.0 mm 86.00 W/m2
11:25 14.4 °C 12.9 °C 1004.6 hPa SSW 4.7 km/h 12.9 km/h 91% 0.0 mm 74.00 W/m2
11:30 14.5 °C 13.0 °C 1004.3 hPa SW 1.4 km/h 8.0 km/h 91% 0.0 mm 95.00 W/m2
11:35 14.5 °C 13.0 °C 1004.6 hPa WSW 11.1 km/h 19.3 km/h 91% 0.0 mm 88.00 W/m2
11:40 14.5 °C 12.9 °C 1004.6 hPa SW 9.7 km/h 16.1 km/h 90% 0.0 mm 74.00 W/m2
11:45 14.6 °C 13.0 °C 1004.6 hPa SW 14.3 km/h 19.3 km/h 90% 0.0 mm 81.00 W/m2
11:50 14.7 °C 13.1 °C 1004.6 hPa SW 13.0 km/h 22.5 km/h 90% 0.0 mm 51.00 W/m2
11:55 14.8 °C 13.0 °C 1004.6 hPa SSW 7.9 km/h 25.7 km/h 89% 0.0 mm 44.00 W/m2
12:00 14.8 °C 12.8 °C 1004.3 hPa South 6.4 km/h 19.3 km/h 88% 0.0 mm 60.00 W/m2
12:05 14.8 °C 12.8 °C 1004.3 hPa WSW 9.7 km/h 19.3 km/h 88% 0.0 mm 83.00 W/m2
12:10 14.9 °C 12.9 °C 1003.9 hPa SW 16.3 km/h 25.7 km/h 88% 0.0 mm 76.00 W/m2
12:15 14.9 °C 12.9 °C 1003.9 hPa SW 13.0 km/h 20.9 km/h 88% 0.0 mm 76.00 W/m2
12:20 15.0 °C 13.0 °C 1003.9 hPa SW 9.7 km/h 17.7 km/h 88% 0.0 mm 58.00 W/m2
12:25 15.0 °C 13.0 °C 1003.9 hPa SW 14.3 km/h 25.7 km/h 88% 0.0 mm 69.00 W/m2
12:30 15.1 °C 13.1 °C 1003.9 hPa SW 11.1 km/h 22.5 km/h 88% 0.0 mm 83.00 W/m2
12:35 15.2 °C 13.2 °C 1003.9 hPa SW 20.9 km/h 25.7 km/h 88% 0.0 mm 81.00 W/m2
12:40 15.2 °C 13.2 °C 1003.9 hPa WSW 16.3 km/h 30.6 km/h 88% 0.0 mm 100.00 W/m2
12:45 15.2 °C 13.2 °C 1003.6 hPa SW 11.1 km/h 25.7 km/h 88% 0.0 mm 107.00 W/m2
12:50 15.1 °C 13.1 °C 1003.6 hPa SSW 7.9 km/h 30.6 km/h 88% 0.0 mm 105.00 W/m2
12:55 15.2 °C 13.4 °C 1003.6 hPa SW 6.4 km/h 16.1 km/h 89% 0.0 mm 95.00 W/m2
13:00 15.2 °C 13.4 °C 1003.6 hPa WSW 11.1 km/h 24.1 km/h 89% 0.0 mm 93.00 W/m2
13:05 15.3 °C 13.5 °C 1003.6 hPa SW 22.7 km/h 27.4 km/h 89% 0.0 mm 76.00 W/m2
13:10 15.3 °C 13.5 °C 1003.3 hPa WSW 30.6 km/h 38.6 km/h 89% 0.0 mm 120.00 W/m2
13:15 15.3 °C 13.5 °C 1003.6 hPa WSW 19.5 km/h 25.7 km/h 89% 0.0 mm 90.00 W/m2
13:20 15.2 °C 13.4 °C 1003.6 hPa SW 22.7 km/h 25.7 km/h 89% 0.3 mm 111.00 W/m2
13:25 15.1 °C 13.3 °C 1003.6 hPa SW 22.7 km/h 24.1 km/h 89% 0.3 mm 100.00 W/m2
13:30 15.0 °C 13.4 °C 1003.6 hPa SW 14.3 km/h 22.5 km/h 90% 0.5 mm 100.00 W/m2
13:35 15.0 °C 13.4 °C 1003.3 hPa SW 16.3 km/h 24.1 km/h 90% 0.5 mm 100.00 W/m2
13:40 15.0 °C 13.5 °C 1003.3 hPa WSW 20.9 km/h 35.4 km/h 91% 0.5 mm 134.00 W/m2
13:45 15.0 °C 13.5 °C 1003.6 hPa SW 14.3 km/h 32.2 km/h 91% 0.5 mm 113.00 W/m2
13:50 15.0 °C 13.5 °C 1003.3 hPa WSW 14.3 km/h 37.0 km/h 91% 0.5 mm 118.00 W/m2
13:55 15.0 °C 13.5 °C 1003.3 hPa WSW 19.5 km/h 19.3 km/h 91% 0.5 mm 114.00 W/m2
14:00 15.0 °C 13.5 °C 1003.6 hPa WSW 16.3 km/h 37.0 km/h 91% 0.8 mm 97.00 W/m2
14:05 14.9 °C 13.4 °C 1003.6 hPa SW 13.0 km/h 30.6 km/h 91% 1.0 mm 84.00 W/m2
14:10 14.9 °C 13.6 °C 1003.3 hPa WSW 13.0 km/h 24.1 km/h 92% 1.5 mm 95.00 W/m2
14:15 14.9 °C 13.6 °C 1003.3 hPa WSW 16.3 km/h 25.7 km/h 92% 1.5 mm 188.00 W/m2
14:20 15.0 °C 13.7 °C 1003.3 hPa SW 14.3 km/h 32.2 km/h 92% 1.5 mm 176.00 W/m2
14:25 15.1 °C 13.8 °C 1003.3 hPa SSW 17.7 km/h 30.6 km/h 92% 1.5 mm 142.00 W/m2
14:30 15.2 °C 13.9 °C 1002.9 hPa SSW 9.7 km/h 17.7 km/h 92% 1.3 mm 137.00 W/m2
14:35 15.2 °C 13.7 °C 1002.9 hPa SSW 32.2 km/h 32.2 km/h 91% 1.3 mm 181.00 W/m2
14:40 15.4 °C 13.9 °C 1002.9 hPa SSW 16.3 km/h 30.6 km/h 91% 1.0 mm 183.00 W/m2
14:45 15.4 °C 13.9 °C 1003.3 hPa WSW 19.5 km/h 33.8 km/h 91% 1.0 mm 135.00 W/m2
14:50 15.4 °C 13.8 °C 1002.9 hPa WSW 17.7 km/h 32.2 km/h 90% 1.0 mm 113.00 W/m2
14:55 15.4 °C 13.8 °C 1002.9 hPa SW 6.4 km/h 25.7 km/h 90% 0.8 mm 223.00 W/m2
15:00 15.3 °C 13.7 °C 1002.9 hPa WSW 11.1 km/h 17.7 km/h 90% 0.8 mm 146.00 W/m2
15:05 15.3 °C 13.8 °C 1002.9 hPa SSW 16.3 km/h 22.5 km/h 91% 0.5 mm 81.00 W/m2
15:10 15.3 °C 13.8 °C 1002.9 hPa SW 13.0 km/h 22.5 km/h 91% 0.3 mm 109.00 W/m2
15:15 15.4 °C 13.9 °C 1002.6 hPa SW 14.3 km/h 17.7 km/h 91% 0.0 mm 148.00 W/m2
15:20 15.4 °C 13.8 °C 1002.6 hPa SW 19.5 km/h 24.1 km/h 90% 0.0 mm 91.00 W/m2
15:25 15.5 °C 13.9 °C 1002.6 hPa SW 17.7 km/h 25.7 km/h 90% 0.0 mm 139.00 W/m2
15:30 15.5 °C 13.9 °C 1002.3 hPa WSW 11.1 km/h 17.7 km/h 90% 0.0 mm 174.00 W/m2
15:35 15.6 °C 14.0 °C 1002.6 hPa SW 3.2 km/h 25.7 km/h 90% 0.0 mm 158.00 W/m2
15:40 15.6 °C 14.0 °C 1002.6 hPa SSW 16.3 km/h 29.0 km/h 90% 0.3 mm 91.00 W/m2
15:45 15.6 °C 13.8 °C 1002.6 hPa WSW 11.1 km/h 29.0 km/h 89% 0.3 mm 86.00 W/m2
15:50 15.7 °C 13.9 °C 1002.9 hPa WNW 17.7 km/h 35.4 km/h 89% 0.3 mm 19.00 W/m2
15:55 15.0 °C 13.2 °C 1003.6 hPa NW 14.3 km/h 30.6 km/h 89% 0.8 mm 28.00 W/m2
16:00 14.4 °C 12.8 °C 1003.6 hPa WNW 22.7 km/h 32.2 km/h 90% 1.3 mm 63.00 W/m2
16:05 13.9 °C 12.5 °C 1003.3 hPa WNW 14.3 km/h 29.0 km/h 91% 1.5 mm 97.00 W/m2
16:10 13.7 °C 12.3 °C 1003.6 hPa WNW 16.3 km/h 27.4 km/h 91% 1.5 mm 42.00 W/m2
16:15 13.6 °C 12.3 °C 1003.6 hPa NW 14.3 km/h 22.5 km/h 92% 1.5 mm 30.00 W/m2
16:20 13.3 °C 12.0 °C 1003.9 hPa NW 7.9 km/h 25.7 km/h 92% 1.5 mm 19.00 W/m2
16:25 13.2 °C 11.9 °C 1003.9 hPa WNW 9.7 km/h 20.9 km/h 92% 2.0 mm 23.00 W/m2
16:30 13.1 °C 11.8 °C 1003.9 hPa WNW 6.4 km/h 14.5 km/h 92% 2.3 mm 39.00 W/m2
16:35 13.0 °C 11.7 °C 1003.9 hPa West 6.4 km/h 11.3 km/h 92% 2.3 mm 51.00 W/m2
16:40 13.0 °C 11.9 °C 1004.3 hPa WNW 11.1 km/h 16.1 km/h 93% 2.3 mm 47.00 W/m2
16:45 13.1 °C 12.0 °C 1003.9 hPa West 9.7 km/h 11.3 km/h 93% 2.3 mm 33.00 W/m2
16:50 13.0 °C 11.9 °C 1003.9 hPa WNW 4.7 km/h 11.3 km/h 93% 2.3 mm 39.00 W/m2
16:55 13.0 °C 11.9 °C 1003.9 hPa WNW 9.7 km/h 12.9 km/h 93% 1.5 mm 39.00 W/m2
17:00 13.0 °C 11.9 °C 1003.6 hPa West 1.4 km/h 9.7 km/h 93% 1.3 mm 26.00 W/m2
17:05 13.0 °C 11.9 °C 1003.9 hPa West 7.9 km/h 12.9 km/h 93% 1.0 mm 21.00 W/m2
17:10 13.0 °C 11.9 °C 1003.9 hPa West 7.9 km/h 11.3 km/h 93% 1.3 mm 21.00 W/m2
17:15 13.1 °C 12.0 °C 1003.9 hPa West 7.9 km/h 9.7 km/h 93% 1.3 mm 16.00 W/m2
17:20 13.1 °C 12.2 °C 1003.9 hPa Calm   6.4 km/h 94% 1.0 mm 11.00 W/m2
17:25 13.1 °C 12.2 °C 1003.9 hPa West 1.4 km/h 9.7 km/h 94% 0.5 mm 16.00 W/m2
17:30 13.1 °C 12.2 °C 1004.3 hPa West 9.7 km/h 11.3 km/h 94% 0.5 mm 14.00 W/m2
17:35 13.0 °C 12.1 °C 1004.3 hPa West 9.7 km/h 19.3 km/h 94% 0.5 mm 16.00 W/m2
17:40 13.0 °C 12.1 °C 1004.3 hPa WSW 11.1 km/h 14.5 km/h 94% 0.5 mm 16.00 W/m2
17:45 13.0 °C 12.1 °C 1004.3 hPa West 4.7 km/h 9.7 km/h 94% 0.5 mm 7.00 W/m2
17:50 13.0 °C 12.1 °C 1004.6 hPa West 6.4 km/h 17.7 km/h 94% 0.5 mm 5.00 W/m2
17:55 12.9 °C 12.0 °C 1004.6 hPa WNW 11.1 km/h 17.7 km/h 94% 0.5 mm 7.00 W/m2
18:00 12.7 °C 11.8 °C 1004.6 hPa WNW 7.9 km/h 16.1 km/h 94% 0.5 mm 9.00 W/m2
18:05 12.5 °C 11.6 °C 1004.6 hPa WNW 4.7 km/h 16.1 km/h 94% 0.5 mm 5.00 W/m2
18:10 12.4 °C 11.5 °C 1004.6 hPa West 17.7 km/h 19.3 km/h 94% 0.5 mm 0.00 W/m2
18:15 12.4 °C 11.5 °C 1004.6 hPa WNW 7.9 km/h 9.7 km/h 94% 0.5 mm 0.00 W/m2
18:20 12.4 °C 11.5 °C 1004.6 hPa Calm   6.4 km/h 94% 0.5 mm 0.00 W/m2
18:25 12.4 °C 11.5 °C 1004.6 hPa WNW 4.7 km/h 6.4 km/h 94% 0.5 mm 0.00 W/m2
18:30 12.4 °C 11.5 °C 1004.6 hPa Calm   6.4 km/h 94% 0.5 mm 0.00 W/m2
18:35 12.4 °C 11.5 °C 1004.6 hPa WNW 1.4 km/h 4.8 km/h 94% 0.5 mm 0.00 W/m2
18:40 12.3 °C 11.4 °C 1004.6 hPa Calm   3.2 km/h 94% 0.3 mm 0.00 W/m2
18:45 12.3 °C 11.4 °C 1005.0 hPa WNW 1.4 km/h 6.4 km/h 94% 0.3 mm 0.00 W/m2
18:50 12.3 °C 11.4 °C 1005.0 hPa Calm   4.8 km/h 94% 0.3 mm 0.00 W/m2
18:55 12.3 °C 11.4 °C 1004.6 hPa Calm   1.6 km/h 94% 0.3 mm 0.00 W/m2
19:00 12.3 °C 11.4 °C 1005.0 hPa Calm   3.2 km/h 94% 0.3 mm 0.00 W/m2
19:05 12.2 °C 11.3 °C 1004.6 hPa Calm   1.6 km/h 94% 0.0 mm 0.00 W/m2
19:10 12.2 °C 11.3 °C 1004.6 hPa Calm     94% 0.0 mm 0.00 W/m2
19:15 12.2 °C 11.3 °C 1004.6 hPa WNW 1.4 km/h 6.4 km/h 94% 0.0 mm 0.00 W/m2
19:20 12.2 °C 11.3 °C 1004.6 hPa Calm     94% 0.0 mm 0.00 W/m2
19:25 12.3 °C 11.4 °C 1004.6 hPa Calm     94% 0.0 mm 0.00 W/m2
19:30 12.2 °C 11.3 °C 1004.6 hPa Calm     94% 0.0 mm 0.00 W/m2
19:35 12.3 °C 11.4 °C 1004.3 hPa Calm     94% 0.0 mm 0.00 W/m2
19:40 12.2 °C 11.3 °C 1004.6 hPa WNW 1.4 km/h 1.6 km/h 94% 0.0 mm 0.00 W/m2
19:45 12.1 °C 11.2 °C 1004.6 hPa Calm     94% 0.0 mm 0.00 W/m2
19:50 12.1 °C 11.2 °C 1004.3 hPa Calm     94% 0.0 mm 0.00 W/m2
19:55 12.1 °C 11.2 °C 1004.6 hPa Calm     94% 0.0 mm 0.00 W/m2
20:00 12.2 °C 11.3 °C 1004.6 hPa Calm   1.6 km/h 94% 0.0 mm 0.00 W/m2
20:05 12.1 °C 11.2 °C 1004.6 hPa Calm     94% 0.0 mm 0.00 W/m2
20:10 12.2 °C 11.3 °C 1004.6 hPa Calm     94% 0.0 mm 0.00 W/m2
20:15 12.1 °C 11.2 °C 1004.6 hPa Calm     94% 0.0 mm 0.00 W/m2
20:20 12.1 °C 11.2 °C 1004.6 hPa Calm   1.6 km/h 94% 0.0 mm 0.00 W/m2
20:25 12.0 °C 11.1 °C 1004.6 hPa Calm     94% 0.0 mm 0.00 W/m2
20:30 11.9 °C 11.0 °C 1004.6 hPa Calm     94% 0.0 mm 0.00 W/m2
20:35 11.9 °C 11.0 °C 1004.6 hPa Calm   3.2 km/h 94% 0.0 mm 0.00 W/m2
20:40 11.9 °C 11.0 °C 1004.6 hPa Calm     94% 0.0 mm 0.00 W/m2
20:45 11.8 °C 10.9 °C 1004.6 hPa Calm     94% 0.0 mm 0.00 W/m2
20:50 11.8 °C 10.9 °C 1004.6 hPa Calm     94% 0.0 mm 0.00 W/m2
20:55 11.8 °C 10.9 °C 1004.6 hPa Calm   1.6 km/h 94% 0.0 mm 0.00 W/m2
21:00 11.8 °C 10.9 °C 1005.0 hPa Calm     94% 0.0 mm 0.00 W/m2
21:05 11.8 °C 10.9 °C 1005.0 hPa Calm   4.8 km/h 94% 0.0 mm 0.00 W/m2
21:10 11.8 °C 10.9 °C 1005.3 hPa Calm   3.2 km/h 94% 0.3 mm 0.00 W/m2
21:15 11.7 °C 10.8 °C 1005.3 hPa WNW 1.4 km/h 4.8 km/h 94% 0.3 mm 0.00 W/m2
21:20 11.7 °C 10.8 °C 1005.3 hPa WNW 4.7 km/h 4.8 km/h 94% 0.3 mm 0.00 W/m2
21:25 11.7 °C 10.8 °C 1005.3 hPa WNW 3.2 km/h 6.4 km/h 94% 0.3 mm 0.00 W/m2
21:30 11.7 °C 10.8 °C 1005.3 hPa Calm   3.2 km/h 94% 0.3 mm 0.00 W/m2
21:35 11.7 °C 10.8 °C 1005.6 hPa Calm     94% 0.3 mm 0.00 W/m2
21:40 11.7 °C 10.8 °C 1005.6 hPa Calm   3.2 km/h 94% 0.3 mm 0.00 W/m2
21:45 11.7 °C 10.8 °C 1005.6 hPa WNW 1.4 km/h 3.2 km/h 94% 0.5 mm 0.00 W/m2
21:50 11.7 °C 10.8 °C 1005.6 hPa Calm   1.6 km/h 94% 0.5 mm 0.00 W/m2
21:55 11.7 °C 10.8 °C 1005.3 hPa Calm   3.2 km/h 94% 0.5 mm 0.00 W/m2
22:00 11.7 °C 10.8 °C 1005.6 hPa WNW 1.4 km/h 4.8 km/h 94% 0.5 mm 0.00 W/m2
22:05 11.7 °C 10.8 °C 1005.6 hPa WNW 1.4 km/h 3.2 km/h 94% 0.8 mm 0.00 W/m2
22:10 11.7 °C 10.8 °C 1005.6 hPa Calm   3.2 km/h 94% 0.5 mm 0.00 W/m2
22:15 11.7 °C 10.8 °C 1005.6 hPa Calm   3.2 km/h 94% 0.8 mm 0.00 W/m2
22:20 11.7 °C 10.8 °C 1005.6 hPa WNW 4.8 km/h 4.8 km/h 94% 0.8 mm 0.00 W/m2
22:25 11.7 °C 10.8 °C 1005.6 hPa Calm   3.2 km/h 94% 1.0 mm 0.00 W/m2
22:30 11.6 °C 10.7 °C 1006.0 hPa WNW 3.2 km/h 6.4 km/h 94% 1.0 mm 0.00 W/m2
22:35 11.5 °C 10.6 °C 1005.6 hPa West 3.2 km/h 4.8 km/h 94% 1.0 mm 0.00 W/m2
22:40 11.5 °C 10.6 °C 1005.6 hPa Calm   3.2 km/h 94% 0.8 mm 0.00 W/m2
22:45 11.4 °C 10.5 °C 1006.0 hPa West 6.4 km/h 6.4 km/h 94% 0.8 mm 0.00 W/m2
22:50 11.3 °C 10.4 °C 1006.0 hPa SW 3.2 km/h 12.9 km/h 94% 1.0 mm 0.00 W/m2
22:55 11.1 °C 10.2 °C 1006.0 hPa WSW 3.2 km/h 11.3 km/h 94% 0.8 mm 0.00 W/m2
23:00 10.9 °C 10.0 °C 1006.0 hPa West 4.7 km/h 11.3 km/h 94% 0.5 mm 0.00 W/m2
23:05 10.9 °C 10.0 °C 1006.0 hPa West 3.2 km/h 9.7 km/h 94% 0.5 mm 0.00 W/m2
23:10 10.8 °C 9.9 °C 1006.0 hPa Calm   8.0 km/h 94% 0.5 mm 0.00 W/m2
23:15 10.8 °C 9.9 °C 1005.6 hPa Calm   9.7 km/h 94% 0.5 mm 0.00 W/m2
23:20 10.7 °C 9.8 °C 1005.6 hPa Calm   4.8 km/h 94% 0.5 mm 0.00 W/m2
23:25 10.7 °C 9.8 °C 1005.6 hPa Calm   4.8 km/h 94% 0.5 mm 0.00 W/m2
23:30 10.7 °C 9.8 °C 1006.0 hPa West 1.4 km/h 3.2 km/h 94% 0.5 mm 0.00 W/m2
23:35 10.7 °C 9.8 °C 1006.0 hPa West 1.4 km/h 4.8 km/h 94% 0.5 mm 0.00 W/m2
23:40 10.6 °C 9.7 °C 1006.0 hPa Calm   3.2 km/h 94% 0.5 mm 0.00 W/m2
23:45 10.6 °C 9.5 °C 1006.0 hPa West 1.4 km/h 4.8 km/h 93% 0.5 mm 0.00 W/m2
23:50 10.5 °C 9.4 °C 1006.0 hPa Calm   4.8 km/h 93% 0.5 mm 0.00 W/m2
23:55 10.5 °C 9.4 °C 1006.3 hPa Calm   3.2 km/h 93% 0.5 mm 0.00 W/m2